EBOS/OST METAR and TAF weather

Enter ICAO airport designator
Station Type Date Time Source
EBOS METAR 2021/01/17 19:50 UTC NOAA

EBOS 171950Z 30010KT 9999 FEW025 06/03 Q1025 NOSIG


Station Type Date Time Source
EBOS Decoded METAR 2021/01/17 19:50 UTC NOAA

Oostende Airport , Belgium (EBOS) 51-12N 002-52E 5M
Jan 17, 2021 - 02:50 PM EST / 2021.01.17 1950 UTC
Wind: from the WNW (300 degrees) at 12 MPH (10 KT):0
Visibility: greater than 7 mile(s):0
Sky conditions: mostly clear
Temperature: 42 F (6 C)
Dew Point: 37 F (3 C)
Relative Humidity: 81%
Pressure (altimeter): 30.27 in. Hg (1025 hPa)
ob: EBOS 171950Z 30010KT 9999 FEW025 06/03 Q1025 NOSIG
cycle: 20

Station Type Date Time Source
EBOS TAF 2021/01/17 18:27 UTC NOAA

TAF EBOS 171716Z 1718/1824 29009KT 9999 SCT015 SCT040
BECMG 1815/1817 21012KT
TEMPO 1821/1824 20015G25KT 4000 RA SCT008 BKN012

Example: see airport list